createdAt,value
2019-03-11T00:02:00.048Z,12.76
2019-03-11T00:04:30.531Z,12.65
2019-03-11T00:07:03.543Z,12.64
2019-03-11T00:09:33.920Z,12.58
2019-03-11T00:12:04.544Z,12.55
2019-03-11T00:14:35.386Z,12.68
2019-03-11T00:17:06.119Z,12.84
2019-03-11T00:19:36.723Z,12.92
2019-03-11T00:22:07.515Z,12.91
2019-03-11T00:24:37.963Z,12.92
2019-03-11T00:27:10.972Z,12.85
2019-03-11T00:29:41.325Z,12.76
2019-03-11T00:32:11.875Z,12.77
2019-03-11T00:34:42.287Z,12.70
2019-03-11T00:37:12.835Z,12.61
2019-03-11T00:39:43.659Z,12.59
2019-03-11T00:42:14.119Z,12.77
2019-03-11T00:44:44.638Z,13.09
2019-03-11T00:47:15.309Z,13.51
2019-03-11T00:49:45.880Z,13.77
2019-03-11T00:52:16.348Z,13.93
2019-03-11T00:54:47.026Z,14.23
2019-03-11T00:57:19.274Z,14.46
2019-03-11T00:59:49.985Z,14.69
2019-03-11T01:02:20.405Z,14.85
2019-03-11T01:04:50.766Z,15.04
2019-03-11T01:07:21.349Z,15.22
2019-03-11T01:09:51.798Z,15.28
2019-03-11T01:12:22.188Z,15.17
2019-03-11T01:14:52.725Z,14.84
2019-03-11T01:17:23.108Z,14.69
2019-03-11T01:19:53.435Z,14.25
2019-03-11T01:22:23.917Z,14.15
2019-03-11T01:24:54.349Z,13.75
2019-03-11T01:27:24.720Z,13.41
2019-03-11T01:29:55.129Z,13.37
2019-03-11T01:32:25.605Z,13.03
2019-03-11T01:34:56.059Z,12.81
2019-03-11T01:37:26.546Z,12.75
2019-03-11T01:39:56.973Z,12.55
2019-03-11T01:42:27.428Z,12.63
2019-03-11T01:45:00.446Z,12.62
2019-03-11T01:47:30.797Z,12.54
2019-03-11T01:50:01.226Z,12.58
2019-03-11T01:52:31.772Z,12.64
2019-03-11T01:55:02.219Z,12.72
2019-03-11T01:57:32.438Z,12.81
2019-03-11T02:00:02.764Z,12.99
2019-03-11T02:02:33.265Z,13.32
2019-03-11T02:05:06.255Z,13.74
2019-03-11T02:07:36.857Z,14.15
2019-03-11T02:10:07.972Z,14.43
2019-03-11T02:12:38.545Z,14.47
2019-03-11T02:15:10.347Z,14.29
2019-03-11T02:17:40.891Z,14.11
2019-03-11T02:20:13.250Z,13.80
2019-03-11T02:22:43.775Z,13.49
2019-03-11T02:25:14.899Z,13.42
2019-03-11T02:27:45.400Z,13.12
2019-03-11T02:30:16.319Z,13.07
2019-03-11T02:32:46.853Z,12.93
2019-03-11T02:35:27.303Z,12.80
2019-03-11T02:37:58.189Z,12.57
2019-03-11T02:40:28.795Z,12.46
2019-03-11T02:42:59.275Z,12.44
2019-03-11T02:45:29.646Z,12.44
2019-03-11T02:48:00.290Z,12.41
2019-03-11T02:50:33.810Z,12.44
2019-03-11T02:53:05.236Z,12.58
2019-03-11T02:55:35.681Z,12.70
2019-03-11T02:58:06.229Z,12.87
2019-03-11T03:00:36.721Z,13.28
2019-03-11T03:03:26.210Z,13.58
2019-03-11T03:06:00.736Z,13.78
2019-03-11T03:08:31.355Z,13.96
2019-03-11T03:11:01.883Z,14.03
2019-03-11T03:13:32.304Z,14.15
2019-03-11T03:16:02.752Z,14.16
2019-03-11T03:18:35.617Z,14.16
2019-03-11T03:21:06.077Z,14.09
2019-03-11T03:23:36.549Z,14.01
2019-03-11T03:26:06.984Z,14.15
2019-03-11T03:28:37.443Z,14.22
2019-03-11T03:31:07.925Z,14.20
2019-03-11T03:33:38.337Z,14.36
2019-03-11T03:36:08.887Z,14.41
2019-03-11T03:38:39.247Z,14.43
2019-03-11T03:41:09.778Z,14.41
2019-03-11T03:43:40.222Z,14.42
2019-03-11T03:46:18.835Z,14.39
2019-03-11T03:48:43.150Z,14.38
2019-03-11T03:51:13.649Z,14.41
2019-03-11T03:53:44.190Z,14.47
2019-03-11T03:56:14.612Z,14.49
2019-03-11T03:58:45.106Z,14.53
2019-03-11T04:01:15.600Z,14.53
2019-03-11T04:03:46.056Z,14.50
2019-03-11T04:06:16.603Z,14.55
2019-03-11T04:08:47.105Z,14.57
2019-03-11T04:11:17.685Z,14.57
2019-03-11T04:13:48.135Z,14.60
2019-03-11T04:16:18.650Z,14.62
2019-03-11T04:18:59.278Z,14.69
2019-03-11T04:21:29.888Z,14.68
2019-03-11T04:24:00.355Z,14.67
2019-03-11T04:26:32.091Z,14.67
2019-03-11T04:29:02.663Z,14.74
2019-03-11T04:31:33.230Z,14.75
2019-03-11T04:34:03.568Z,14.77
2019-03-11T04:36:34.025Z,14.78
2019-03-11T04:39:05.730Z,14.79
2019-03-11T04:41:36.223Z,14.84
2019-03-11T04:44:07.078Z,14.85
2019-03-11T04:46:37.713Z,14.83
2019-03-11T04:49:07.995Z,14.90
2019-03-11T04:51:38.359Z,14.84
2019-03-11T04:54:08.927Z,14.88
2019-03-11T04:56:39.426Z,14.87
2019-03-11T04:59:17.245Z,14.88
2019-03-11T05:01:47.822Z,14.85
2019-03-11T05:04:18.396Z,14.84
2019-03-11T05:06:48.778Z,14.82
2019-03-11T05:09:19.183Z,14.76
2019-03-11T05:11:49.589Z,14.69
2019-03-11T05:14:20.117Z,14.57
2019-03-11T05:16:50.608Z,14.70
2019-03-11T05:19:21.417Z,14.66
2019-03-11T05:21:52.226Z,14.73
2019-03-11T05:24:22.829Z,14.62
2019-03-11T05:26:53.358Z,14.45
2019-03-11T05:29:23.921Z,14.37
2019-03-11T05:31:54.402Z,14.30
2019-03-11T05:34:24.773Z,14.35
2019-03-11T05:36:55.453Z,14.30
2019-03-11T05:39:26.008Z,14.31
2019-03-11T05:41:56.719Z,14.31
2019-03-11T05:44:27.132Z,14.32
2019-03-11T05:46:57.745Z,14.28
2019-03-11T05:49:28.512Z,14.27
2019-03-11T05:51:59.213Z,14.32
2019-03-11T05:54:29.603Z,14.26
2019-03-11T05:57:00.202Z,14.33
2019-03-11T05:59:30.700Z,14.30
2019-03-11T06:02:01.150Z,14.19
2019-03-11T06:04:31.966Z,14.08
2019-03-11T06:07:02.473Z,14.07
2019-03-11T06:09:33.001Z,14.13
2019-03-11T06:12:03.306Z,14.15
2019-03-11T06:14:34.064Z,14.28
2019-03-11T06:17:04.514Z,14.34
2019-03-11T06:19:34.942Z,14.62
2019-03-11T06:22:18.059Z,14.82
2019-03-11T06:24:48.651Z,15.00
2019-03-11T06:27:19.071Z,15.10
2019-03-11T06:29:49.345Z,15.15
2019-03-11T06:32:19.767Z,15.44
2019-03-11T06:34:50.298Z,15.49
2019-03-11T06:37:22.489Z,15.47
2019-03-11T06:39:53.218Z,15.51
2019-03-11T06:42:24.037Z,15.59
2019-03-11T06:44:54.508Z,15.75
2019-03-11T06:47:24.957Z,15.89
2019-03-11T06:49:55.517Z,16.05
2019-03-11T06:52:26.126Z,16.18
2019-03-11T06:54:56.751Z,16.30
2019-03-11T06:57:27.263Z,16.40
2019-03-11T07:00:01.396Z,16.43
2019-03-11T07:02:32.027Z,16.41
2019-03-11T07:05:02.933Z,16.41
2019-03-11T07:07:33.374Z,16.56
2019-03-11T07:10:04.314Z,16.78
2019-03-11T07:12:34.805Z,17.00
2019-03-11T07:15:07.818Z,17.34
2019-03-11T07:17:38.147Z,17.84
2019-03-11T07:20:11.493Z,18.45
2019-03-11T07:22:41.999Z,19.41
2019-03-11T07:25:12.380Z,20.44
2019-03-11T07:27:42.715Z,20.79
2019-03-11T07:30:14.015Z,20.34
2019-03-11T07:32:44.454Z,19.68
2019-03-11T07:35:14.816Z,19.27
2019-03-11T07:37:45.474Z,19.06
2019-03-11T07:40:16.116Z,19.15
2019-03-11T07:42:46.751Z,19.50
2019-03-11T07:45:17.389Z,20.06
2019-03-11T07:47:47.723Z,20.13
2019-03-11T07:50:18.824Z,19.79
2019-03-11T07:52:49.385Z,20.15
2019-03-11T07:55:19.726Z,20.72
2019-03-11T07:57:50.159Z,20.76
2019-03-11T08:00:20.496Z,20.64
2019-03-11T08:02:56.636Z,20.66
2019-03-11T08:05:26.777Z,20.68
2019-03-11T08:07:56.869Z,20.37
2019-03-11T08:10:27.117Z,20.25
2019-03-11T08:12:57.524Z,20.30
2019-03-11T08:15:27.428Z,20.17
2019-03-11T08:17:57.301Z,20.07
2019-03-11T08:20:27.493Z,20.27
2019-03-11T08:22:57.609Z,20.33
2019-03-11T08:25:28.024Z,20.43
2019-03-11T08:27:58.234Z,20.31
2019-03-11T08:30:28.149Z,20.32
2019-03-11T08:32:58.524Z,20.36
2019-03-11T08:35:28.776Z,20.44
2019-03-11T08:38:04.579Z,20.42
2019-03-11T08:40:31.453Z,20.44
2019-03-11T08:43:01.759Z,20.78
2019-03-11T08:45:32.118Z,21.63
2019-03-11T08:48:02.215Z,21.93
2019-03-11T08:50:32.227Z,22.18
2019-03-11T08:53:02.810Z,22.21
2019-03-11T08:55:33.042Z,22.35
2019-03-11T08:58:03.536Z,23.30
2019-03-11T09:00:33.844Z,24.56
2019-03-11T09:03:04.072Z,25.66
2019-03-11T09:05:34.423Z,25.99
2019-03-11T09:08:04.916Z,26.32
2019-03-11T09:10:35.071Z,26.70
2019-03-11T09:13:05.576Z,26.68
2019-03-11T09:15:36.260Z,27.55
2019-03-11T09:18:06.812Z,27.97
2019-03-11T09:20:37.170Z,27.95
2019-03-11T09:23:07.308Z,28.33
2019-03-11T09:25:37.916Z,28.80
2019-03-11T09:28:08.406Z,28.76
2019-03-11T09:30:38.821Z,28.34
2019-03-11T09:33:09.391Z,28.34
2019-03-11T09:35:39.809Z,28.82
2019-03-11T09:38:10.087Z,29.65
2019-03-11T09:40:40.058Z,30.68
2019-03-11T09:43:10.211Z,31.61
2019-03-11T09:45:41.072Z,31.72
2019-03-11T09:48:11.519Z,32.81
2019-03-11T09:50:42.370Z,33.12
2019-03-11T09:53:12.678Z,33.36
2019-03-11T09:55:43.189Z,34.37
2019-03-11T09:58:13.620Z,34.71
2019-03-11T10:00:46.332Z,33.38
2019-03-11T10:03:16.797Z,32.13
2019-03-11T10:05:47.205Z,31.57
2019-03-11T10:08:17.393Z,30.74
2019-03-11T10:10:48.137Z,30.30
2019-03-11T10:13:18.684Z,30.57
2019-03-11T10:15:49.225Z,30.19
2019-03-11T10:18:19.439Z,29.37
2019-03-11T10:20:50.041Z,29.34
2019-03-11T10:23:28.407Z,29.02
2019-03-11T10:25:52.559Z,29.83
2019-03-11T10:28:22.907Z,30.42
2019-03-11T10:30:53.351Z,29.56
2019-03-11T10:33:23.963Z,29.58
2019-03-11T10:35:54.370Z,30.29
2019-03-11T10:38:24.904Z,30.12
2019-03-11T10:40:55.123Z,31.17
2019-03-11T10:43:25.395Z,33.10
2019-03-11T10:45:55.421Z,34.88
2019-03-11T10:48:36.293Z,36.04
2019-03-11T10:50:57.469Z,36.74
2019-03-11T10:53:27.425Z,36.88
2019-03-11T10:55:59.914Z,37.65
2019-03-11T10:58:30.046Z,37.82
2019-03-11T11:01:00.332Z,38.22
2019-03-11T11:03:30.992Z,38.51
2019-03-11T11:06:01.098Z,38.59
2019-03-11T11:08:31.759Z,39.15
2019-03-11T11:11:01.998Z,39.92
2019-03-11T11:13:32.349Z,40.06
2019-03-11T11:16:02.773Z,39.24
2019-03-11T11:18:33.001Z,38.93
2019-03-11T11:21:03.384Z,37.85
2019-03-11T11:23:33.510Z,35.67
2019-03-11T11:26:03.358Z,34.56
2019-03-11T11:28:33.632Z,33.79
2019-03-11T11:31:03.734Z,34.43
2019-03-11T11:33:34.106Z,35.45
2019-03-11T11:36:03.695Z,36.14
2019-03-11T11:38:33.449Z,36.88
2019-03-11T11:41:03.699Z,36.99
2019-03-11T11:43:34.129Z,36.86
2019-03-11T11:46:04.360Z,36.05
2019-03-11T11:48:34.473Z,35.68
2019-03-11T11:51:04.648Z,35.37
2019-03-11T11:53:35.043Z,35.45
2019-03-11T11:56:05.272Z,35.27
2019-03-11T11:58:35.486Z,35.90
2019-03-11T12:01:05.852Z,36.25
2019-03-11T12:03:38.861Z,35.38
2019-03-11T12:06:09.018Z,34.68
2019-03-11T12:08:39.487Z,34.79
2019-03-11T12:11:09.794Z,35.40
2019-03-11T12:13:40.506Z,35.94
2019-03-11T12:16:10.946Z,35.13
2019-03-11T12:18:41.316Z,33.88
2019-03-11T12:21:11.755Z,32.96
2019-03-11T12:23:46.205Z,32.89
2019-03-11T12:26:13.836Z,32.98
2019-03-11T12:28:47.301Z,33.30
2019-03-11T12:31:17.849Z,34.04
2019-03-11T12:33:48.384Z,34.26
2019-03-11T12:36:18.867Z,34.15
2019-03-11T12:38:49.319Z,32.19
2019-03-11T12:41:19.927Z,31.62
2019-03-11T12:43:50.673Z,30.87
2019-03-11T12:46:20.820Z,30.20
2019-03-11T12:48:51.596Z,29.04
2019-03-11T12:51:22.340Z,28.45
2019-03-11T12:53:52.453Z,27.94
2019-03-11T12:56:22.906Z,27.41
2019-03-11T12:58:53.366Z,27.12
2019-03-11T13:01:23.954Z,27.24
2019-03-11T13:03:54.612Z,27.46
2019-03-11T13:06:25.270Z,26.84
2019-03-11T13:08:55.684Z,26.93
2019-03-11T13:11:25.956Z,26.96
2019-03-11T13:13:56.482Z,26.84
2019-03-11T13:16:27.117Z,26.45
2019-03-11T13:18:59.753Z,25.74
2019-03-11T13:21:32.665Z,25.39
2019-03-11T13:24:03.347Z,25.48
2019-03-11T13:26:33.813Z,25.52
2019-03-11T13:29:04.383Z,25.55
2019-03-11T13:31:34.661Z,25.61
2019-03-11T13:34:04.944Z,25.75
2019-03-11T13:36:35.520Z,25.75
2019-03-11T13:39:07.748Z,25.91
2019-03-11T13:41:38.065Z,25.64
2019-03-11T13:44:08.964Z,25.15
2019-03-11T13:46:39.416Z,25.06
2019-03-11T13:49:09.620Z,24.88
2019-03-11T13:51:39.812Z,24.36
2019-03-11T13:54:10.027Z,24.28
2019-03-11T13:56:40.426Z,24.04
2019-03-11T13:59:11.307Z,23.80
2019-03-11T14:01:41.758Z,24.02
2019-03-11T14:04:12.308Z,23.75
2019-03-11T14:06:42.738Z,23.46
2019-03-11T14:09:13.621Z,23.28
2019-03-11T14:11:43.948Z,23.41
2019-03-11T14:14:14.451Z,23.31
2019-03-11T14:16:44.788Z,23.04
2019-03-11T14:19:15.373Z,22.88
2019-03-11T14:21:45.646Z,22.70
2019-03-11T14:24:16.055Z,22.59
2019-03-11T14:26:46.433Z,22.72
2019-03-11T14:29:16.951Z,22.81
2019-03-11T14:31:47.269Z,22.66
2019-03-11T14:34:18.183Z,22.56
2019-03-11T14:36:48.716Z,22.35
2019-03-11T14:39:18.950Z,22.41
2019-03-11T14:41:49.522Z,22.39
2019-03-11T14:44:19.611Z,22.33
2019-03-11T14:46:50.156Z,22.33
2019-03-11T14:49:20.388Z,22.33
2019-03-11T14:51:50.609Z,22.07
2019-03-11T14:54:20.553Z,22.09
2019-03-11T14:56:50.691Z,22.26
2019-03-11T14:59:21.103Z,22.09
2019-03-11T15:01:51.483Z,21.95
2019-03-11T15:04:22.065Z,21.95
2019-03-11T15:06:52.844Z,21.77
2019-03-11T15:09:23.432Z,21.61
2019-03-11T15:11:53.666Z,21.37
2019-03-11T15:14:24.168Z,21.36
2019-03-11T15:16:54.573Z,21.23
2019-03-11T15:19:24.980Z,21.34
2019-03-11T15:21:55.276Z,21.25
2019-03-11T15:24:25.923Z,21.40
2019-03-11T15:26:56.135Z,21.49
2019-03-11T15:29:26.310Z,21.43
2019-03-11T15:31:57.637Z,21.24
2019-03-11T15:34:28.243Z,21.20
2019-03-11T15:36:58.403Z,20.97
2019-03-11T15:39:28.733Z,20.81
2019-03-11T15:41:59.255Z,20.77
2019-03-11T15:44:29.591Z,20.75
2019-03-11T15:46:59.894Z,20.78
2019-03-11T15:49:30.033Z,20.61
2019-03-11T15:52:00.510Z,20.58
2019-03-11T15:54:30.961Z,20.50
2019-03-11T15:57:01.007Z,20.41
2019-03-11T15:59:31.474Z,20.39
2019-03-11T16:02:01.915Z,20.32
2019-03-11T16:04:32.469Z,20.13
2019-03-11T16:07:02.740Z,20.16
2019-03-11T16:09:32.873Z,20.02
2019-03-11T16:12:03.201Z,19.99
2019-03-11T16:14:33.815Z,19.94
2019-03-11T16:17:04.520Z,19.86
2019-03-11T16:19:34.980Z,19.81
2019-03-11T16:22:05.483Z,19.63
2019-03-11T16:24:35.742Z,19.57
2019-03-11T16:27:06.201Z,19.47
2019-03-11T16:29:36.890Z,19.31
2019-03-11T16:32:07.515Z,19.30
2019-03-11T16:34:37.727Z,19.30
2019-03-11T16:37:08.291Z,19.47
2019-03-11T16:39:38.193Z,19.39
2019-03-11T16:42:08.638Z,19.30
2019-03-11T16:44:38.917Z,19.20
2019-03-11T16:47:09.027Z,19.09
2019-03-11T16:49:39.358Z,19.01
2019-03-11T16:52:09.722Z,18.96
2019-03-11T16:54:39.801Z,18.89
2019-03-11T16:57:10.629Z,18.90
2019-03-11T16:59:40.835Z,18.83
2019-03-11T17:02:11.277Z,18.77
2019-03-11T17:04:41.576Z,18.81
2019-03-11T17:07:12.855Z,18.84
2019-03-11T17:09:43.279Z,18.88
2019-03-11T17:12:13.381Z,18.82
2019-03-11T17:14:43.388Z,18.80
2019-03-11T17:17:15.300Z,18.77
2019-03-11T17:19:45.773Z,18.62
2019-03-11T17:22:16.332Z,18.70
2019-03-11T17:24:46.763Z,18.68
2019-03-11T17:27:17.224Z,18.60
2019-03-11T17:29:47.154Z,18.65
2019-03-11T17:32:17.800Z,18.64
2019-03-11T17:34:48.313Z,18.59
2019-03-11T17:37:18.734Z,18.53
2019-03-11T17:39:49.241Z,18.59
2019-03-11T17:42:19.481Z,18.59
2019-03-11T17:44:49.999Z,18.52
2019-03-11T17:47:23.029Z,18.47
2019-03-11T17:49:54.369Z,18.45
2019-03-11T17:52:25.000Z,18.45
2019-03-11T17:54:55.332Z,18.46
2019-03-11T17:57:25.746Z,18.47
2019-03-11T17:59:56.280Z,18.49
2019-03-11T18:02:26.632Z,18.51
2019-03-11T18:04:56.905Z,18.48
2019-03-11T18:07:27.067Z,18.39
2019-03-11T18:09:58.113Z,18.53
2019-03-11T18:12:28.060Z,18.49
2019-03-11T18:14:57.980Z,18.51
2019-03-11T18:17:28.429Z,18.47
2019-03-11T18:19:58.425Z,18.56
2019-03-11T18:22:28.871Z,18.46
2019-03-11T18:24:59.297Z,18.31
2019-03-11T18:27:29.751Z,18.23
2019-03-11T18:30:00.036Z,18.19
2019-03-11T18:32:30.390Z,18.11
2019-03-11T18:35:00.901Z,18.14
2019-03-11T18:37:31.147Z,18.03
2019-03-11T18:40:03.782Z,18.00
2019-03-11T18:42:34.175Z,17.95
2019-03-11T18:45:04.578Z,17.82
2019-03-11T18:47:35.117Z,17.91
2019-03-11T18:50:06.132Z,17.88
2019-03-11T18:52:36.208Z,17.86
2019-03-11T18:55:07.006Z,17.92
2019-03-11T18:57:40.474Z,17.82
2019-03-11T19:00:12.330Z,17.89
2019-03-11T19:02:45.119Z,17.88
2019-03-11T19:05:16.248Z,17.87
2019-03-11T19:07:46.844Z,17.88
2019-03-11T19:10:17.494Z,17.79
2019-03-11T19:12:47.438Z,17.68
2019-03-11T19:15:18.237Z,17.57
2019-03-11T19:17:48.599Z,17.56
2019-03-11T19:20:19.519Z,17.47
2019-03-11T19:22:50.228Z,17.37
2019-03-11T19:25:20.341Z,17.22
2019-03-11T19:27:50.750Z,17.08
2019-03-11T19:30:24.213Z,17.07
2019-03-11T19:32:56.075Z,17.08
2019-03-11T19:35:26.808Z,16.93
2019-03-11T19:37:57.408Z,16.81
2019-03-11T19:40:27.634Z,16.68
2019-03-11T19:42:58.362Z,16.61
2019-03-11T19:45:28.621Z,16.60
2019-03-11T19:47:59.070Z,16.64
2019-03-11T19:50:30.738Z,16.59
2019-03-11T19:53:01.182Z,16.66
2019-03-11T19:55:31.647Z,16.68
2019-03-11T19:58:02.281Z,16.64
2019-03-11T20:00:32.866Z,16.69
2019-03-11T20:03:03.347Z,16.75
2019-03-11T20:05:33.956Z,16.62
2019-03-11T20:08:04.817Z,16.49
2019-03-11T20:10:35.650Z,16.19
2019-03-11T20:13:06.313Z,15.72
2019-03-11T20:15:38.211Z,15.34
2019-03-11T20:18:08.782Z,14.92
2019-03-11T20:20:39.948Z,14.71
2019-03-11T20:23:10.292Z,14.61
2019-03-11T20:25:40.739Z,14.46
2019-03-11T20:28:11.213Z,14.39
2019-03-11T20:30:41.496Z,14.33
2019-03-11T20:33:14.203Z,14.30
2019-03-11T20:35:44.746Z,14.37
2019-03-11T20:38:15.098Z,14.30
2019-03-11T20:40:45.572Z,14.33
2019-03-11T20:43:15.463Z,14.30
2019-03-11T20:45:46.001Z,14.26
2019-03-11T20:48:18.821Z,14.21
2019-03-11T20:50:51.502Z,14.19
2019-03-11T20:53:22.140Z,14.19
2019-03-11T20:55:52.913Z,14.24
2019-03-11T20:58:23.534Z,14.18
2019-03-11T21:00:53.916Z,14.11
2019-03-11T21:03:24.514Z,14.08
2019-03-11T21:05:55.328Z,14.00
2019-03-11T21:08:25.787Z,13.94
2019-03-11T21:10:56.455Z,13.97
2019-03-11T21:13:26.699Z,13.94
2019-03-11T21:15:57.182Z,13.89
2019-03-11T21:18:27.593Z,13.81
2019-03-11T21:21:04.705Z,13.73
2019-03-11T21:23:29.245Z,13.68
2019-03-11T21:26:02.183Z,13.68
2019-03-11T21:28:32.821Z,13.65
2019-03-11T21:31:03.441Z,13.66
2019-03-11T21:33:36.517Z,13.67
2019-03-11T21:36:07.039Z,13.69
2019-03-11T21:38:37.809Z,13.67
2019-03-11T21:41:08.169Z,13.63
2019-03-11T21:43:38.892Z,13.63
2019-03-11T21:46:08.629Z,13.59
2019-03-11T21:48:39.248Z,13.62
2019-03-11T21:51:09.354Z,13.56
2019-03-11T21:53:39.813Z,13.56
2019-03-11T21:56:10.417Z,13.55
2019-03-11T21:58:40.946Z,13.49
2019-03-11T22:01:13.826Z,13.46
2019-03-11T22:03:44.164Z,13.44
2019-03-11T22:06:14.131Z,13.46
2019-03-11T22:08:44.575Z,13.43
2019-03-11T22:11:14.891Z,13.36
2019-03-11T22:13:45.360Z,13.46
2019-03-11T22:16:15.806Z,13.52
2019-03-11T22:18:45.872Z,13.41
2019-03-11T22:21:16.383Z,13.28
2019-03-11T22:23:47.058Z,13.14
2019-03-11T22:26:17.559Z,13.08
2019-03-11T22:28:48.061Z,12.97
2019-03-11T22:31:20.854Z,12.95
2019-03-11T22:33:51.211Z,12.91
2019-03-11T22:36:21.741Z,12.89
2019-03-11T22:38:52.188Z,12.83
2019-03-11T22:41:22.784Z,12.73
2019-03-11T22:43:53.390Z,12.61
2019-03-11T22:46:23.937Z,12.52
2019-03-11T22:48:54.147Z,12.49
2019-03-11T22:51:24.636Z,12.49
2019-03-11T22:53:55.013Z,12.45
2019-03-11T22:56:25.545Z,12.40
2019-03-11T22:58:55.894Z,12.37
2019-03-11T23:01:26.591Z,12.38
2019-03-11T23:03:58.659Z,12.38
2019-03-11T23:06:29.092Z,12.38
2019-03-11T23:08:59.686Z,12.37
2019-03-11T23:11:29.694Z,12.43
2019-03-11T23:14:00.103Z,12.51
2019-03-11T23:16:30.520Z,12.49
2019-03-11T23:19:01.115Z,12.49
2019-03-11T23:21:31.495Z,12.43
2019-03-11T23:24:01.954Z,12.38
2019-03-11T23:26:34.704Z,12.41
2019-03-11T23:29:05.243Z,12.46
2019-03-11T23:31:35.719Z,12.53
2019-03-11T23:34:06.005Z,12.53
2019-03-11T23:36:36.397Z,12.60
2019-03-11T23:39:08.615Z,12.56
2019-03-11T23:41:39.244Z,12.48
2019-03-11T23:44:09.660Z,12.49
2019-03-11T23:46:39.983Z,12.49
2019-03-11T23:49:10.505Z,12.49
2019-03-11T23:51:41.018Z,12.49
2019-03-11T23:54:11.674Z,12.37
2019-03-11T23:56:42.266Z,12.39
2019-03-11T23:59:13.041Z,12.35
